createdAt,value
2022-09-07T00:00:54.053Z,2.53
2022-09-07T00:01:55.757Z,2.40
2022-09-07T00:02:57.598Z,2.60
2022-09-07T00:03:59.647Z,2.60
2022-09-07T00:05:01.414Z,2.50
2022-09-07T00:06:09.189Z,2.40
2022-09-07T00:07:10.921Z,2.15
2022-09-07T00:08:13.742Z,2.10
2022-09-07T00:09:15.441Z,2.42
2022-09-07T00:10:17.281Z,2.30
2022-09-07T00:11:19.852Z,2.63
2022-09-07T00:12:21.603Z,2.50
2022-09-07T00:13:25.679Z,2.65
2022-09-07T00:14:27.392Z,2.45
2022-09-07T00:15:29.152Z,2.70
2022-09-07T00:16:31.769Z,2.53
2022-09-07T00:17:33.518Z,2.67
2022-09-07T00:18:35.480Z,2.65
2022-09-07T00:19:37.216Z,2.65
2022-09-07T00:20:38.978Z,2.17
2022-09-07T00:21:40.858Z,2.88
2022-09-07T00:22:42.614Z,2.40
2022-09-07T00:23:44.981Z,2.60
2022-09-07T00:24:46.734Z,2.72
2022-09-07T00:25:52.293Z,2.63
2022-09-07T00:26:56.780Z,2.75
2022-09-07T00:27:59.437Z,2.90
2022-09-07T00:29:03.349Z,2.67
2022-09-07T00:30:06.378Z,2.80
2022-09-07T00:31:14.803Z,2.65
2022-09-07T00:32:16.736Z,2.55
2022-09-07T00:33:18.439Z,2.72
2022-09-07T00:34:20.224Z,2.83
2022-09-07T00:35:21.950Z,2.78
2022-09-07T00:36:23.839Z,2.55
2022-09-07T00:37:26.052Z,2.80
2022-09-07T00:38:27.893Z,2.38
2022-09-07T00:39:29.795Z,3.08
2022-09-07T00:40:31.642Z,2.50
2022-09-07T00:41:33.377Z,2.60
2022-09-07T00:42:35.104Z,3.33
2022-09-07T00:43:42.997Z,2.65
2022-09-07T00:44:44.681Z,2.72
2022-09-07T00:45:46.463Z,2.63
2022-09-07T00:46:48.246Z,2.80
2022-09-07T00:48:10.954Z,2.78
2022-09-07T00:49:21.630Z,2.72
2022-09-07T00:50:44.583Z,2.70
2022-09-07T00:51:54.656Z,2.90
2022-09-07T00:53:07.254Z,2.97
2022-09-07T00:54:26.745Z,3.33
2022-09-07T00:55:30.047Z,2.80
2022-09-07T00:56:35.044Z,2.97
2022-09-07T00:57:39.098Z,2.80
2022-09-07T00:58:43.850Z,3.08
2022-09-07T00:59:50.242Z,2.85
2022-09-07T01:00:52.294Z,2.90
2022-09-07T01:01:54.620Z,3.47
2022-09-07T01:02:58.357Z,3.70
2022-09-07T01:04:01.759Z,3.30
2022-09-07T01:05:42.062Z,3.30
2022-09-07T01:06:44.515Z,3.20
2022-09-07T01:07:46.745Z,3.38
2022-09-07T01:08:50.462Z,3.60
2022-09-07T01:09:52.693Z,3.50
2022-09-07T01:10:56.104Z,3.20
2022-09-07T01:12:00.098Z,3.00
2022-09-07T01:13:02.401Z,3.15
2022-09-07T01:14:09.535Z,3.10
2022-09-07T01:15:11.412Z,3.08
2022-09-07T01:16:31.809Z,3.60
2022-09-07T01:17:41.802Z,3.58
2022-09-07T01:19:15.010Z,3.45
2022-09-07T01:21:13.209Z,3.58
2022-09-07T01:22:30.041Z,3.13
2022-09-07T01:23:34.555Z,3.10
2022-09-07T01:24:42.762Z,3.20
2022-09-07T01:26:00.641Z,3.55
2022-09-07T01:27:30.293Z,3.63
2022-09-07T01:28:39.030Z,3.35
2022-09-07T01:29:44.574Z,3.15
2022-09-07T01:30:55.802Z,3.30
2022-09-07T01:32:18.925Z,4.03
2022-09-07T01:33:27.305Z,3.15
2022-09-07T01:34:29.026Z,3.22
2022-09-07T01:36:08.293Z,3.42
2022-09-07T01:37:22.041Z,2.88
2022-09-07T01:38:44.910Z,3.40
2022-09-07T01:40:11.956Z,3.20
2022-09-07T01:41:20.604Z,3.72
2022-09-07T01:42:30.622Z,4.18
2022-09-07T01:43:32.276Z,3.67
2022-09-07T01:44:53.429Z,3.83
2022-09-07T01:45:58.746Z,3.20
2022-09-07T01:47:38.762Z,2.95
2022-09-07T01:48:43.887Z,3.25
2022-09-07T01:50:05.199Z,3.55
2022-09-07T01:51:06.921Z,3.40
2022-09-07T01:52:36.565Z,3.58
2022-09-07T01:53:50.776Z,3.58
2022-09-07T01:55:00.154Z,3.85
2022-09-07T01:56:08.655Z,3.85
2022-09-07T01:57:19.431Z,3.63
2022-09-07T01:58:32.465Z,3.65
2022-09-07T02:00:10.978Z,3.75
2022-09-07T02:01:33.130Z,3.80
2022-09-07T02:02:42.948Z,4.03
2022-09-07T02:04:01.354Z,3.75
2022-09-07T02:05:14.636Z,3.88
2022-09-07T02:06:20.832Z,3.63
2022-09-07T02:07:35.030Z,4.00
2022-09-07T02:08:53.478Z,3.70
2022-09-07T02:10:23.647Z,3.45
2022-09-07T02:11:37.769Z,3.55
2022-09-07T02:12:42.475Z,3.55
2022-09-07T02:13:55.027Z,3.58
2022-09-07T02:15:01.941Z,3.60
2022-09-07T02:16:10.989Z,3.60
2022-09-07T02:17:33.958Z,3.45
2022-09-07T02:18:45.593Z,3.90
2022-09-07T02:19:52.713Z,3.50
2022-09-07T02:20:58.165Z,3.28
2022-09-07T02:22:05.581Z,3.72
2022-09-07T02:23:32.461Z,3.58
2022-09-07T02:24:40.299Z,3.53
2022-09-07T02:25:56.106Z,3.45
2022-09-07T02:27:02.204Z,3.58
2022-09-07T02:28:14.816Z,3.50
2022-09-07T02:29:16.540Z,3.28
2022-09-07T02:30:18.244Z,3.30
2022-09-07T02:31:20.511Z,3.38
2022-09-07T02:32:22.361Z,3.55
2022-09-07T02:33:24.346Z,3.13
2022-09-07T02:34:26.197Z,3.40
2022-09-07T02:35:27.930Z,3.55
2022-09-07T02:36:33.946Z,3.45
2022-09-07T02:37:37.289Z,3.38
2022-09-07T02:38:39.038Z,3.42
2022-09-07T02:39:40.871Z,4.45
2022-09-07T02:40:42.758Z,3.85
2022-09-07T02:41:46.322Z,3.80
2022-09-07T02:42:48.905Z,3.65
2022-09-07T02:43:50.656Z,3.67
2022-09-07T02:44:52.569Z,3.80
2022-09-07T02:46:20.887Z,3.60
2022-09-07T02:47:39.072Z,3.60
2022-09-07T02:49:05.694Z,3.78
2022-09-07T02:50:33.073Z,3.50
2022-09-07T02:52:01.836Z,3.60
2022-09-07T02:53:24.728Z,3.95
2022-09-07T02:54:44.957Z,3.90
2022-09-07T02:56:06.446Z,4.13
2022-09-07T02:57:46.670Z,3.83
2022-09-07T02:59:12.744Z,4.00
2022-09-07T03:00:20.999Z,4.07
2022-09-07T03:01:31.740Z,3.90
2022-09-07T03:03:15.571Z,3.97
2022-09-07T03:04:27.720Z,4.10
2022-09-07T03:05:59.088Z,3.95
2022-09-07T03:07:16.038Z,4.22
2022-09-07T03:08:26.047Z,4.07
2022-09-07T03:09:32.098Z,3.75
2022-09-07T03:10:34.503Z,3.67
2022-09-07T03:11:37.801Z,3.70
2022-09-07T03:12:40.758Z,3.88
2022-09-07T03:13:42.503Z,3.75
2022-09-07T03:14:44.606Z,3.60
2022-09-07T03:15:46.370Z,3.90
2022-09-07T03:16:50.955Z,3.67
2022-09-07T03:17:53.308Z,3.47
2022-09-07T03:18:55.028Z,3.53
2022-09-07T03:19:56.872Z,3.67
2022-09-07T03:20:58.676Z,3.70
2022-09-07T03:22:00.388Z,3.53
2022-09-07T03:23:02.099Z,3.65
2022-09-07T03:24:04.119Z,3.60
2022-09-07T03:25:06.529Z,4.13
2022-09-07T03:26:15.276Z,3.55
2022-09-07T03:27:17.002Z,3.80
2022-09-07T03:28:18.789Z,3.75
2022-09-07T03:29:20.533Z,3.83
2022-09-07T03:30:22.288Z,3.85
2022-09-07T03:31:24.194Z,3.90
2022-09-07T03:32:30.998Z,3.55
2022-09-07T03:33:32.711Z,3.40
2022-09-07T03:34:34.506Z,3.85
2022-09-07T03:35:36.278Z,3.97
2022-09-07T03:36:38.088Z,3.90
2022-09-07T03:37:39.810Z,3.65
2022-09-07T03:38:41.637Z,3.45
2022-09-07T03:39:43.411Z,3.67
2022-09-07T03:40:45.128Z,3.45
2022-09-07T03:41:47.043Z,3.58
2022-09-07T03:42:50.390Z,3.85
2022-09-07T03:43:52.768Z,3.92
2022-09-07T03:44:54.504Z,3.38
2022-09-07T03:46:00.679Z,3.70
2022-09-07T03:47:02.498Z,3.83
2022-09-07T03:48:04.301Z,3.92
2022-09-07T03:49:06.020Z,3.85
2022-09-07T03:50:08.144Z,3.65
2022-09-07T03:51:11.614Z,3.58
2022-09-07T03:52:13.380Z,3.83
2022-09-07T03:53:15.094Z,3.42
2022-09-07T03:54:16.805Z,3.22
2022-09-07T03:55:18.528Z,3.45
2022-09-07T03:56:22.876Z,3.53
2022-09-07T03:57:24.576Z,3.40
2022-09-07T03:58:28.281Z,3.30
2022-09-07T03:59:30.045Z,3.50
2022-09-07T04:00:31.815Z,3.58
2022-09-07T04:01:33.784Z,3.72
2022-09-07T04:02:35.594Z,3.45
2022-09-07T04:03:37.997Z,3.83
2022-09-07T04:04:39.720Z,3.92
2022-09-07T04:05:41.418Z,3.83
2022-09-07T04:06:43.394Z,4.15
2022-09-07T04:07:45.119Z,4.05
2022-09-07T04:08:47.146Z,4.18
2022-09-07T04:09:51.407Z,4.35
2022-09-07T04:10:53.132Z,4.45
2022-09-07T04:11:54.920Z,4.90
2022-09-07T04:12:56.903Z,4.97
2022-09-07T04:13:58.806Z,4.28
2022-09-07T04:15:00.553Z,3.75
2022-09-07T04:16:23.739Z,3.75
2022-09-07T04:17:25.535Z,3.92
2022-09-07T04:18:27.325Z,3.92
2022-09-07T04:19:30.157Z,3.95
2022-09-07T04:20:31.951Z,3.70
2022-09-07T04:21:34.369Z,3.90
2022-09-07T04:22:36.083Z,3.65
2022-09-07T04:23:39.724Z,3.60
2022-09-07T04:24:41.526Z,3.70
2022-09-07T04:25:50.412Z,3.80
2022-09-07T04:26:52.508Z,3.67
2022-09-07T04:27:56.107Z,3.58
2022-09-07T04:28:58.818Z,4.10
2022-09-07T04:30:00.562Z,3.92
2022-09-07T04:31:03.292Z,4.07
2022-09-07T04:32:05.155Z,4.43
2022-09-07T04:33:07.026Z,4.45
2022-09-07T04:34:09.829Z,4.47
2022-09-07T04:35:11.535Z,4.57
2022-09-07T04:36:13.875Z,4.57
2022-09-07T04:37:15.659Z,4.68
2022-09-07T04:38:17.569Z,4.32
2022-09-07T04:39:19.338Z,4.55
2022-09-07T04:40:21.062Z,4.13
2022-09-07T04:41:23.175Z,4.00
2022-09-07T04:42:24.912Z,4.15
2022-09-07T04:43:27.109Z,3.40
2022-09-07T04:44:28.872Z,4.43
2022-09-07T04:45:30.576Z,4.00
2022-09-07T04:46:34.687Z,3.70
2022-09-07T04:47:36.430Z,4.20
2022-09-07T04:48:38.135Z,3.30
2022-09-07T04:49:39.960Z,3.45
2022-09-07T04:50:41.717Z,2.90
2022-09-07T04:51:44.427Z,3.10
2022-09-07T04:52:46.267Z,2.85
2022-09-07T04:53:50.318Z,2.90
2022-09-07T04:54:52.081Z,2.90
2022-09-07T04:55:53.823Z,2.63
2022-09-07T04:56:55.560Z,2.50
2022-09-07T04:57:57.277Z,2.97
2022-09-07T04:59:00.862Z,2.88
2022-09-07T05:00:02.897Z,2.55
2022-09-07T05:01:06.496Z,2.47
2022-09-07T05:02:08.415Z,2.60
2022-09-07T05:03:10.246Z,2.90
2022-09-07T05:04:11.986Z,2.83
2022-09-07T05:05:13.871Z,3.08
2022-09-07T05:06:17.406Z,2.75
2022-09-07T05:07:19.164Z,2.67
2022-09-07T05:08:20.938Z,2.60
2022-09-07T05:09:22.637Z,2.70
2022-09-07T05:10:24.739Z,2.42
2022-09-07T05:11:29.692Z,2.60
2022-09-07T05:12:31.711Z,3.05
2022-09-07T05:13:33.614Z,2.80
2022-09-07T05:14:35.465Z,2.65
2022-09-07T05:15:37.192Z,2.47
2022-09-07T05:16:38.997Z,2.97
2022-09-07T05:17:43.238Z,2.58
2022-09-07T05:18:49.352Z,2.85
2022-09-07T05:19:51.083Z,2.72
2022-09-07T05:20:52.826Z,2.45
2022-09-07T05:21:57.225Z,3.00
2022-09-07T05:22:59.760Z,2.92
2022-09-07T05:24:02.647Z,2.75
2022-09-07T05:25:04.612Z,2.80
2022-09-07T05:26:06.736Z,2.90
2022-09-07T05:27:08.547Z,2.90
2022-09-07T05:28:10.812Z,2.75
2022-09-07T05:31:56.211Z,2.75
2022-09-07T05:32:58.556Z,2.60
2022-09-07T05:35:22.153Z,2.80
2022-09-07T05:36:27.005Z,3.10
2022-09-07T05:37:28.728Z,2.55
2022-09-07T05:38:30.580Z,2.63
2022-09-07T05:39:32.539Z,2.53
2022-09-07T05:40:39.876Z,2.42
2022-09-07T05:41:42.344Z,2.53
2022-09-07T05:42:44.051Z,2.83
2022-09-07T05:45:08.438Z,2.28
2022-09-07T05:46:10.969Z,2.50
2022-09-07T05:47:13.048Z,2.75
2022-09-07T05:48:14.776Z,2.65
2022-09-07T05:49:16.516Z,2.92
2022-09-07T05:50:18.322Z,2.60
2022-09-07T05:51:20.033Z,2.60
2022-09-07T05:52:21.778Z,2.72
2022-09-07T05:53:23.620Z,2.60
2022-09-07T05:54:25.665Z,2.55
2022-09-07T05:55:30.238Z,2.75
2022-09-07T05:56:36.437Z,3.03
2022-09-07T05:57:38.232Z,2.30
2022-09-07T05:58:40.141Z,2.50
2022-09-07T05:59:41.942Z,2.50
2022-09-07T06:00:44.368Z,2.45
2022-09-07T06:01:46.186Z,2.40
2022-09-07T06:02:48.826Z,2.63
2022-09-07T06:03:50.638Z,2.38
2022-09-07T06:04:52.424Z,2.17
2022-09-07T06:06:10.945Z,2.40
2022-09-07T06:07:22.438Z,2.20
2022-09-07T06:08:24.808Z,2.50
2022-09-07T06:09:30.354Z,2.67
2022-09-07T06:10:44.245Z,2.50
2022-09-07T06:11:46.337Z,2.42
2022-09-07T06:12:49.268Z,2.10
2022-09-07T06:13:52.255Z,2.40
2022-09-07T06:14:53.998Z,3.10
2022-09-07T06:16:00.862Z,2.30
2022-09-07T06:17:02.653Z,2.30
2022-09-07T06:18:04.386Z,2.28
2022-09-07T06:19:07.701Z,2.22
2022-09-07T06:20:09.946Z,2.22
2022-09-07T06:21:17.982Z,2.60
2022-09-07T06:22:19.689Z,2.95
2022-09-07T06:23:21.405Z,2.50
2022-09-07T06:24:23.180Z,2.35
2022-09-07T06:25:24.975Z,2.90
2022-09-07T06:26:26.689Z,2.55
2022-09-07T06:27:29.491Z,2.70
2022-09-07T06:28:33.933Z,2.20
2022-09-07T06:29:35.851Z,2.20
2022-09-07T06:30:37.755Z,2.30
2022-09-07T06:33:01.131Z,2.13
2022-09-07T06:34:02.869Z,2.13
2022-09-07T06:35:05.022Z,2.40
2022-09-07T06:36:11.111Z,2.80
2022-09-07T06:37:12.873Z,2.60
2022-09-07T06:38:14.581Z,2.17
2022-09-07T06:39:16.394Z,2.10
2022-09-07T06:40:18.116Z,2.13
2022-09-07T06:42:43.999Z,2.13
2022-09-07T06:43:46.224Z,2.28
2022-09-07T06:44:47.935Z,2.50
2022-09-07T06:45:54.619Z,2.40
2022-09-07T06:47:04.083Z,2.20
2022-09-07T06:48:06.492Z,2.30
2022-09-07T06:49:08.232Z,2.00
2022-09-07T06:50:10.246Z,2.28
2022-09-07T06:51:20.413Z,2.15
2022-09-07T06:52:22.561Z,2.75
2022-09-07T06:55:57.088Z,2.25
2022-09-07T06:56:58.782Z,2.17
2022-09-07T06:58:00.473Z,2.30
2022-09-07T06:59:02.338Z,2.28
2022-09-07T07:00:04.755Z,2.50
2022-09-07T07:01:10.379Z,2.20
2022-09-07T07:02:14.857Z,2.42
2022-09-07T07:03:16.883Z,2.33
2022-09-07T07:04:18.628Z,2.50
2022-09-07T07:05:20.355Z,2.05
2022-09-07T07:06:22.387Z,2.08
2022-09-07T07:07:24.114Z,2.33
2022-09-07T07:08:26.206Z,2.30
2022-09-07T07:09:28.237Z,2.60
2022-09-07T07:10:30.046Z,3.05
2022-09-07T07:11:31.811Z,2.40
2022-09-07T07:13:38.877Z,2.20
2022-09-07T07:14:44.607Z,2.30
2022-09-07T07:15:47.037Z,2.15
2022-09-07T07:16:48.767Z,2.65
2022-09-07T07:17:58.103Z,2.25
2022-09-07T07:19:01.140Z,2.13
2022-09-07T07:20:03.106Z,2.58
2022-09-07T07:21:10.965Z,2.30
2022-09-07T07:22:44.980Z,2.45
2022-09-07T07:23:35.271Z,2.25
2022-09-07T07:24:36.984Z,2.10
2022-09-07T07:25:38.703Z,2.30
2022-09-07T07:26:41.404Z,2.45
2022-09-07T07:27:44.246Z,2.40
2022-09-07T07:29:04.565Z,2.25
2022-09-07T07:30:06.839Z,2.65
2022-09-07T07:31:11.333Z,2.38
2022-09-07T07:32:14.847Z,2.20
2022-09-07T07:33:16.576Z,2.63
2022-09-07T07:34:18.325Z,2.28
2022-09-07T07:35:20.254Z,2.03
2022-09-07T07:36:27.097Z,2.15
2022-09-07T07:37:28.886Z,2.22
2022-09-07T07:42:39.938Z,2.10
2022-09-07T07:43:41.643Z,2.25
2022-09-07T07:44:43.299Z,2.47
2022-09-07T07:46:03.901Z,2.40
2022-09-07T07:47:07.025Z,2.47
2022-09-07T07:48:12.171Z,2.50
2022-09-07T07:49:13.824Z,2.45
2022-09-07T07:50:31.842Z,2.17
2022-09-07T07:52:49.842Z,2.53
2022-09-07T07:54:17.872Z,2.20
2022-09-07T07:56:41.225Z,2.10
2022-09-07T07:57:42.992Z,2.47
2022-09-07T07:58:46.791Z,2.00
2022-09-07T07:59:48.458Z,2.30
2022-09-07T08:00:54.585Z,2.28
2022-09-07T08:01:57.181Z,2.50
2022-09-07T08:02:58.909Z,2.47
2022-09-07T08:04:01.197Z,2.30
2022-09-07T08:05:02.859Z,2.40
2022-09-07T08:06:11.377Z,2.60
2022-09-07T08:07:13.276Z,2.45
2022-09-07T08:08:15.599Z,2.40
2022-09-07T08:09:17.374Z,2.42
2022-09-07T08:10:19.652Z,2.20
2022-09-07T08:11:22.204Z,2.30
2022-09-07T08:12:29.105Z,2.50
2022-09-07T08:13:33.919Z,2.33
2022-09-07T08:14:41.887Z,2.22
2022-09-07T08:15:46.995Z,2.55
2022-09-07T08:16:48.949Z,2.47
2022-09-07T08:17:50.765Z,2.28
2022-09-07T08:18:53.833Z,2.35
2022-09-07T08:19:55.988Z,2.40
2022-09-07T08:21:02.341Z,2.47
2022-09-07T08:22:04.222Z,2.42
2022-09-07T08:23:07.619Z,1.98
2022-09-07T08:24:09.434Z,3.00
2022-09-07T08:25:11.557Z,2.40
2022-09-07T08:26:13.369Z,2.20
2022-09-07T08:27:19.146Z,2.97
2022-09-07T08:28:22.262Z,2.60
2022-09-07T08:29:24.354Z,2.58
2022-09-07T08:30:26.146Z,2.60
2022-09-07T08:31:27.861Z,2.35
2022-09-07T08:32:29.790Z,2.78
2022-09-07T08:33:31.793Z,2.55
2022-09-07T08:34:36.325Z,2.60
2022-09-07T08:35:37.954Z,2.92
2022-09-07T08:36:39.632Z,2.85
2022-09-07T08:37:41.293Z,2.30
2022-09-07T08:38:43.107Z,2.38
2022-09-07T08:39:44.851Z,2.60
2022-09-07T08:40:47.070Z,2.60
2022-09-07T08:42:13.375Z,2.83
2022-09-07T08:43:43.864Z,2.50
2022-09-07T08:44:52.117Z,2.30
2022-09-07T08:46:02.234Z,2.67
2022-09-07T08:47:41.578Z,2.90
2022-09-07T08:48:44.141Z,2.60
2022-09-07T08:49:52.098Z,2.47
2022-09-07T08:51:00.866Z,2.42
2022-09-07T08:52:30.685Z,2.95
2022-09-07T08:53:32.568Z,2.88
2022-09-07T08:54:35.380Z,3.05
2022-09-07T08:55:43.429Z,2.63
2022-09-07T08:58:47.565Z,2.88
2022-09-07T09:00:11.751Z,2.78
2022-09-07T09:01:37.639Z,2.50
2022-09-07T09:02:43.967Z,2.45
2022-09-07T09:05:22.896Z,2.85
2022-09-07T09:06:27.591Z,3.05
2022-09-07T09:07:44.245Z,2.90
2022-09-07T09:09:06.408Z,2.97
2022-09-07T09:10:20.288Z,2.72
2022-09-07T09:11:21.938Z,2.67
2022-09-07T09:12:45.431Z,2.40
2022-09-07T09:14:06.528Z,2.72
2022-09-07T09:15:13.056Z,2.80
2022-09-07T09:16:24.097Z,2.50
2022-09-07T09:17:34.821Z,2.55
2022-09-07T09:18:54.515Z,2.25
2022-09-07T09:20:02.002Z,1.90
2022-09-07T09:21:07.994Z,2.28
2022-09-07T09:22:13.746Z,2.20
2022-09-07T09:23:25.896Z,2.20
2022-09-07T09:24:37.649Z,2.25
2022-09-07T09:26:02.113Z,2.35
2022-09-07T09:27:04.035Z,2.13
2022-09-07T09:28:05.893Z,2.15
2022-09-07T09:29:22.127Z,2.17
2022-09-07T09:30:24.867Z,2.15
2022-09-07T09:31:34.163Z,2.30
2022-09-07T09:32:35.966Z,2.25
2022-09-07T09:33:37.652Z,2.35
2022-09-07T09:34:39.326Z,2.28
2022-09-07T09:35:41.446Z,2.40
2022-09-07T09:36:48.007Z,1.85
2022-09-07T09:37:49.716Z,2.20
2022-09-07T09:38:51.683Z,2.28
2022-09-07T09:40:00.670Z,2.75
2022-09-07T09:41:23.572Z,2.08
2022-09-07T09:42:35.128Z,2.20
2022-09-07T09:43:43.562Z,2.13
2022-09-07T09:44:45.654Z,2.17
2022-09-07T09:47:36.178Z,2.08
2022-09-07T09:48:40.489Z,2.10
2022-09-07T09:49:45.081Z,2.17
2022-09-07T09:52:29.643Z,2.20
2022-09-07T09:53:40.372Z,2.05
2022-09-07T09:54:43.605Z,2.22
2022-09-07T09:55:52.945Z,2.42
2022-09-07T09:56:54.848Z,2.35
2022-09-07T10:05:00.643Z,2.28
2022-09-07T10:06:06.727Z,1.88
2022-09-07T10:07:28.575Z,2.28
2022-09-07T10:08:32.776Z,1.80
2022-09-07T10:09:40.586Z,1.98
2022-09-07T10:11:05.920Z,2.28
2022-09-07T10:12:32.185Z,1.83
2022-09-07T10:13:35.438Z,1.90
2022-09-07T10:14:46.831Z,2.20
2022-09-07T10:15:53.890Z,2.15
2022-09-07T10:16:56.331Z,1.80
2022-09-07T10:17:59.687Z,1.80
2022-09-07T10:19:03.083Z,1.77
2022-09-07T10:20:16.697Z,1.60
2022-09-07T10:21:30.278Z,1.90
2022-09-07T10:22:38.965Z,2.00
2022-09-07T10:23:41.119Z,2.00
2022-09-07T10:24:42.875Z,1.98
2022-09-07T10:25:44.623Z,2.03
2022-09-07T10:26:48.753Z,1.90
2022-09-07T10:28:05.912Z,2.00
2022-09-07T10:29:11.758Z,2.10
2022-09-07T10:30:16.620Z,1.85
2022-09-07T10:31:31.891Z,2.30
2022-09-07T10:33:17.522Z,1.88
2022-09-07T10:34:45.060Z,2.08
2022-09-07T10:36:07.565Z,1.88
2022-09-07T10:37:25.818Z,1.90
2022-09-07T10:38:34.605Z,2.10
2022-09-07T10:39:49.368Z,1.88
2022-09-07T10:41:07.472Z,2.17
2022-09-07T10:42:09.368Z,2.13
2022-09-07T10:43:39.018Z,2.10
2022-09-07T10:45:14.700Z,2.20
2022-09-07T10:48:26.446Z,1.90
2022-09-07T10:50:21.926Z,2.00
2022-09-07T10:51:17.987Z,2.05
2022-09-07T10:52:45.965Z,2.20
2022-09-07T10:55:36.695Z,2.10
2022-09-07T10:56:47.338Z,1.95
2022-09-07T10:58:16.717Z,2.00
2022-09-07T11:01:31.210Z,1.98
2022-09-07T11:04:24.810Z,1.92
2022-09-07T11:05:48.120Z,2.22
2022-09-07T11:06:55.476Z,2.05
2022-09-07T11:08:15.958Z,2.00
2022-09-07T11:09:29.388Z,1.80
2022-09-07T11:10:36.864Z,2.13
2022-09-07T11:12:27.996Z,1.75
2022-09-07T11:13:40.974Z,2.50
2022-09-07T11:15:12.969Z,2.80
2022-09-07T11:17:46.533Z,2.50
2022-09-07T11:19:35.118Z,2.20
2022-09-07T11:20:33.988Z,2.15
2022-09-07T11:21:56.751Z,2.05
2022-09-07T11:22:58.468Z,2.40
2022-09-07T11:24:09.459Z,2.40
2022-09-07T11:25:32.802Z,2.33
2022-09-07T11:26:50.798Z,2.25
2022-09-07T11:27:55.811Z,2.33
2022-09-07T11:30:57.844Z,2.22
2022-09-07T11:32:17.714Z,1.98
2022-09-07T11:33:28.564Z,2.30
2022-09-07T11:35:48.865Z,1.77
2022-09-07T11:36:58.583Z,2.42
2022-09-07T11:38:06.531Z,2.42
2022-09-07T11:39:18.725Z,2.50
2022-09-07T11:40:53.176Z,2.15
2022-09-07T11:43:41.489Z,2.28
2022-09-07T11:44:51.872Z,2.25
2022-09-07T11:45:59.293Z,2.15
2022-09-07T11:47:08.527Z,1.90
2022-09-07T11:48:19.873Z,2.10
2022-09-07T11:49:30.653Z,1.90
2022-09-07T11:50:38.563Z,2.28
2022-09-07T11:51:42.304Z,2.40
2022-09-07T11:52:56.202Z,2.28
2022-09-07T11:54:06.752Z,2.53
2022-09-07T11:55:12.902Z,2.20
2022-09-07T11:56:29.020Z,2.40
2022-09-07T11:57:42.519Z,2.65
2022-09-07T11:58:59.095Z,2.30
2022-09-07T12:00:12.231Z,1.80
2022-09-07T12:01:39.604Z,2.15
2022-09-07T12:02:59.822Z,1.98
2022-09-07T12:05:38.259Z,2.22
2022-09-07T12:06:54.975Z,1.90
2022-09-07T12:07:59.466Z,1.90
2022-09-07T12:09:01.051Z,2.00
2022-09-07T12:10:20.932Z,2.00
2022-09-07T12:11:54.687Z,1.92
2022-09-07T12:13:03.047Z,2.15
2022-09-07T12:14:27.950Z,1.83
2022-09-07T12:16:05.779Z,2.17
2022-09-07T12:17:10.458Z,1.80
2022-09-07T12:18:32.013Z,2.35
2022-09-07T12:19:34.238Z,1.83
2022-09-07T12:20:42.530Z,2.00
2022-09-07T12:21:53.204Z,2.08
2022-09-07T12:23:04.242Z,1.98
2022-09-07T12:24:38.849Z,1.80
2022-09-07T12:25:40.990Z,2.05
2022-09-07T12:26:42.605Z,2.05
2022-09-07T12:27:44.385Z,2.08
2022-09-07T12:28:46.077Z,1.88
2022-09-07T12:30:13.146Z,1.60
2022-09-07T12:31:57.276Z,1.70
2022-09-07T12:33:06.004Z,1.90
2022-09-07T12:34:32.672Z,1.88
2022-09-07T12:35:34.324Z,1.90
2022-09-07T12:36:35.995Z,1.75
2022-09-07T12:37:40.256Z,1.80
2022-09-07T12:39:19.618Z,1.98
2022-09-07T12:40:27.586Z,1.85
2022-09-07T12:43:44.672Z,1.90
2022-09-07T12:44:46.373Z,2.20
2022-09-07T12:45:51.854Z,1.75
2022-09-07T12:46:59.086Z,2.03
2022-09-07T12:48:23.903Z,1.90
2022-09-07T12:49:44.324Z,1.80
2022-09-07T12:51:10.262Z,2.05
2022-09-07T12:52:40.397Z,1.90
2022-09-07T12:53:57.983Z,1.88
2022-09-07T12:55:27.486Z,1.63
2022-09-07T12:56:47.067Z,2.00
2022-09-07T12:58:22.984Z,1.80
2022-09-07T12:59:24.616Z,2.00
2022-09-07T13:00:55.404Z,2.10
2022-09-07T13:02:21.551Z,2.03
2022-09-07T13:03:52.808Z,2.10
2022-09-07T13:05:36.345Z,2.13
2022-09-07T13:07:02.789Z,2.00
2022-09-07T13:08:30.839Z,2.13
2022-09-07T13:09:32.593Z,2.38
2022-09-07T13:10:37.144Z,1.80
2022-09-07T13:11:40.271Z,2.38
2022-09-07T13:12:57.022Z,1.80
2022-09-07T13:14:26.972Z,1.70
2022-09-07T13:15:41.102Z,1.70
2022-09-07T13:18:12.600Z,1.85
2022-09-07T13:19:46.197Z,2.63
2022-09-07T13:21:07.967Z,2.28
2022-09-07T13:22:29.691Z,1.88
2022-09-07T13:23:31.658Z,1.88
2022-09-07T13:24:46.257Z,1.80
2022-09-07T13:25:51.933Z,1.90
2022-09-07T13:27:05.870Z,2.10
2022-09-07T13:28:52.734Z,1.70
2022-09-07T13:30:22.401Z,2.15
2022-09-07T13:31:59.068Z,2.10
2022-09-07T13:33:25.278Z,1.90
2022-09-07T13:34:32.668Z,1.90
2022-09-07T13:35:35.405Z,1.90
2022-09-07T13:36:40.620Z,1.88
2022-09-07T13:37:52.510Z,1.83
2022-09-07T13:38:55.563Z,1.90
2022-09-07T13:39:58.798Z,2.08
2022-09-07T13:41:26.292Z,1.88
2022-09-07T13:42:27.896Z,1.90
2022-09-07T13:43:30.684Z,2.05
2022-09-07T13:44:34.635Z,1.58
2022-09-07T13:45:54.876Z,1.88
2022-09-07T13:47:13.350Z,2.07
2022-09-07T13:48:41.034Z,2.10
2022-09-07T13:49:51.406Z,1.92
2022-09-07T13:51:05.938Z,1.70
2022-09-07T13:52:22.480Z,1.88
2022-09-07T13:53:33.480Z,2.20
2022-09-07T13:55:16.509Z,2.03
2022-09-07T13:56:26.986Z,1.80
2022-09-07T13:57:32.993Z,1.92
2022-09-07T13:58:43.659Z,1.80
2022-09-07T13:59:47.828Z,1.70
2022-09-07T14:00:53.995Z,1.90
2022-09-07T14:01:57.223Z,2.03
2022-09-07T14:03:07.475Z,1.90
2022-09-07T14:04:27.231Z,1.90
2022-09-07T14:05:28.996Z,1.67
2022-09-07T14:06:33.389Z,2.10
2022-09-07T14:07:35.240Z,1.75
2022-09-07T14:08:39.824Z,2.00
2022-09-07T14:09:42.318Z,1.95
2022-09-07T14:10:48.702Z,1.83
2022-09-07T14:11:52.713Z,1.80
2022-09-07T14:13:14.591Z,2.10
2022-09-07T14:14:26.396Z,1.95
2022-09-07T14:15:40.588Z,2.10
2022-09-07T14:16:45.729Z,1.92
2022-09-07T14:17:48.391Z,2.03
2022-09-07T14:18:50.067Z,1.98
2022-09-07T14:19:52.234Z,1.52
2022-09-07T14:20:54.162Z,1.80
2022-09-07T14:22:06.824Z,1.55
2022-09-07T14:23:21.101Z,1.70
2022-09-07T14:24:28.881Z,1.65
2022-09-07T14:26:16.013Z,2.00
2022-09-07T14:26:53.107Z,1.50
2022-09-07T14:27:56.411Z,1.77
2022-09-07T14:28:58.225Z,1.63
2022-09-07T14:30:29.980Z,1.77
2022-09-07T14:31:32.445Z,1.70
2022-09-07T14:32:34.274Z,1.88
2022-09-07T14:33:36.124Z,1.73
2022-09-07T14:34:38.288Z,2.00
2022-09-07T14:35:41.497Z,2.05
2022-09-07T14:36:46.236Z,1.80
2022-09-07T14:37:49.999Z,1.85
2022-09-07T14:39:07.245Z,1.80
2022-09-07T14:40:38.614Z,1.88
2022-09-07T14:42:46.554Z,1.90
2022-09-07T14:43:52.484Z,1.92
2022-09-07T14:45:18.326Z,1.98
2022-09-07T14:46:27.613Z,1.90
2022-09-07T14:47:34.056Z,2.00
2022-09-07T14:48:39.359Z,1.90
2022-09-07T14:49:41.726Z,2.00
2022-09-07T14:50:57.247Z,1.80
2022-09-07T14:52:19.707Z,1.90
2022-09-07T14:54:38.599Z,1.45
2022-09-07T14:55:45.799Z,2.28
2022-09-07T14:57:05.462Z,2.05
2022-09-07T14:58:25.390Z,1.90
2022-09-07T14:59:43.020Z,1.80
2022-09-07T15:02:35.688Z,1.83
2022-09-07T15:03:40.105Z,1.83
2022-09-07T15:04:41.774Z,1.80
2022-09-07T15:05:48.196Z,1.85
2022-09-07T15:07:05.310Z,2.03
2022-09-07T15:08:39.002Z,1.80
2022-09-07T15:09:40.654Z,2.05
2022-09-07T15:11:32.510Z,2.22
2022-09-07T15:12:36.110Z,2.05
2022-09-07T15:13:45.174Z,1.85
2022-09-07T15:14:47.956Z,1.70
2022-09-07T15:16:02.281Z,1.83
2022-09-07T15:18:56.744Z,1.75
2022-09-07T15:19:58.519Z,2.15
2022-09-07T15:21:00.160Z,2.33
2022-09-07T15:22:10.487Z,1.75
2022-09-07T15:23:14.966Z,1.90
2022-09-07T15:24:16.668Z,2.00
2022-09-07T15:25:18.323Z,1.73
2022-09-07T15:27:42.377Z,2.00
2022-09-07T15:30:06.336Z,1.90
2022-09-07T15:32:34.148Z,2.13
2022-09-07T15:33:35.920Z,2.10
2022-09-07T15:34:37.630Z,1.88
2022-09-07T15:35:39.281Z,2.13
2022-09-07T15:36:43.431Z,2.30
2022-09-07T15:38:01.374Z,2.10
2022-09-07T15:39:04.198Z,2.10
2022-09-07T15:40:17.654Z,2.50
2022-09-07T15:41:24.055Z,2.00
2022-09-07T15:43:48.239Z,2.08
2022-09-07T15:44:50.349Z,1.88
2022-09-07T15:45:52.550Z,2.00
2022-09-07T15:48:20.937Z,1.73
2022-09-07T15:49:22.621Z,2.20
2022-09-07T15:50:24.277Z,1.98
2022-09-07T15:52:47.713Z,2.33
2022-09-07T15:55:11.780Z,2.25
2022-09-07T15:56:14.028Z,2.20
2022-09-07T15:58:37.490Z,2.22
2022-09-07T15:59:39.129Z,1.90
2022-09-07T16:00:41.419Z,2.00
2022-09-07T16:01:59.052Z,2.10
2022-09-07T16:03:05.191Z,2.70
2022-09-07T16:04:07.739Z,2.45
2022-09-07T16:05:10.278Z,2.42
2022-09-07T16:06:13.896Z,2.58
2022-09-07T16:07:15.742Z,2.30
2022-09-07T16:08:25.110Z,2.47
2022-09-07T16:09:27.311Z,2.42
2022-09-07T16:10:31.038Z,2.45
2022-09-07T16:11:35.251Z,2.30
2022-09-07T16:14:02.343Z,2.58
2022-09-07T16:15:05.917Z,2.45
2022-09-07T16:16:08.280Z,2.67
2022-09-07T16:18:31.948Z,2.10
2022-09-07T16:19:35.266Z,2.65
2022-09-07T16:20:41.100Z,2.65